TFM - Tactical Decision Aid
ID: Runway Winds: CIG/VIS Threshold:

KSNY - Sidney/Carr Fld, NE, US

Updated at: 1337 UTC 27 Nov 2021
Latest TAF at: 1140 UTC 27 Nov 2021

TAF Board

Time1253Z 27/14Z 27/15Z 27/16Z 27/17Z 27/18Z 27/19Z 27/20Z 27/21Z 27/22Z 27/23Z 28/00Z 28/01Z 28/02Z>>
Type OBS PRVL PRVL PRVL PRVL PRVL PRVL PRVL PRVL PRVL PRVL PRVL PRVL PRVL
VIS 10 >6 >6 >6 >6 >6 >6 >6 >6 >6 >6 >6 >6 >6
CIG -- -- 200 200 200 200 200 200 200 200 200 -- -- --
Cover CLR SCT BKN BKN BKN BKN BKN BKN BKN BKN BKN SCT SCT SCT
FltCat VFR VFR VFR VFR VFR VFR VFR VFR VFR VFR VFR VFR VFR VFR
WX -- -- -- -- -- -- -- -- -- -- -- -- -- --
WDir 280 310 350 350 350 350 350 350 350 350 350 360 360 360
WSpd 6 14 17 17 17 17 17 17 17 17 17 7 7 7
WGst -- -- 23 23 23 23 23 23 23 23 23 -- -- --
WSHgt -- -- -- -- -- -- -- -- -- -- -- -- -- --
WSDir -- -- -- -- -- -- -- -- -- -- -- -- -- --
WSSpd -- -- -- -- -- -- -- -- -- -- -- -- -- --

TDA Impact Legend

  None Marginal Slight Moderate High
Visibility (sm) >5 3≤X≤5 2≤X<3 1≤X<2 <1
Ceiling (100 ft) >30 10≤X≤30 8≤X<10 4≤X<8 <4
Wind Speed (kt) <15 15≤X<25 25≤X<30 ≥30
Wind Gust (kt) <15 15≤X<25 25≤X<35 ≥35
Weather No Wx Reported VCTS -TS,-FZRA TS,FZRA +TS,+FZRA
TAF
KSNY 271140Z 2712/2812 31014KT P6SM SCT200
  FM271500 35017G23KT P6SM BKN200
  FM280000 36007KT P6SM SCT200
  FM280500 24006KT P6SM SCT200


METAR
KSNY 271253Z AUTO 28006KT 10SM CLR 02/M07 A3010 RMK AO2 SLP196 T00221067
KSNY 271153Z AUTO 32013KT 10SM CLR 03/M10 A3008 RMK AO2 SLP184 T00281100 10061 20000 51021
KSNY 271053Z AUTO 31014KT 10SM CLR 03/M12 A3007 RMK AO2 SLP173 T00281122

Radar Display
Forecast Discussion